sensor_id;sensor_type;location;lat;lon;timestamp;P1;durP1;ratioP1;P2;durP2;ratioP2
25263;SDS011;13211;51.796;5.808;2023-05-09T00:05:17;73.68;;;33.47;;
25263;SDS011;13211;51.796;5.808;2023-05-09T00:07:45;74.45;;;33.80;;
25263;SDS011;13211;51.796;5.808;2023-05-09T00:10:13;78.60;;;34.65;;
25263;SDS011;13211;51.796;5.808;2023-05-09T00:12:42;72.78;;;34.95;;
25263;SDS011;13211;51.796;5.808;2023-05-09T00:15:12;74.22;;;34.38;;
25263;SDS011;13211;51.796;5.808;2023-05-09T00:17:43;80.78;;;36.10;;
25263;SDS011;13211;51.796;5.808;2023-05-09T00:20:12;75.32;;;35.17;;
25263;SDS011;13211;51.796;5.808;2023-05-09T00:22:41;77.28;;;36.80;;
25263;SDS011;13211;51.796;5.808;2023-05-09T00:25:12;88.43;;;38.85;;
25263;SDS011;13211;51.796;5.808;2023-05-09T00:27:41;90.00;;;40.00;;
25263;SDS011;13211;51.796;5.808;2023-05-09T00:30:08;86.90;;;38.10;;
25263;SDS011;13211;51.796;5.808;2023-05-09T00:32:36;80.65;;;36.20;;
25263;SDS011;13211;51.796;5.808;2023-05-09T00:35:07;74.85;;;34.30;;
25263;SDS011;13211;51.796;5.808;2023-05-09T00:37:35;54.83;;;26.92;;
25263;SDS011;13211;51.796;5.808;2023-05-09T00:40:03;54.78;;;25.70;;
25263;SDS011;13211;51.796;5.808;2023-05-09T00:42:32;46.42;;;23.35;;
25263;SDS011;13211;51.796;5.808;2023-05-09T00:45:01;50.80;;;25.10;;
25263;SDS011;13211;51.796;5.808;2023-05-09T00:47:32;65.05;;;30.30;;
25263;SDS011;13211;51.796;5.808;2023-05-09T00:50:01;66.53;;;31.42;;
25263;SDS011;13211;51.796;5.808;2023-05-09T00:52:30;70.50;;;32.65;;
25263;SDS011;13211;51.796;5.808;2023-05-09T00:54:59;71.30;;;33.03;;
25263;SDS011;13211;51.796;5.808;2023-05-09T00:57:28;76.32;;;33.78;;
25263;SDS011;13211;51.796;5.808;2023-05-09T00:59:56;76.78;;;34.00;;
25263;SDS011;13211;51.796;5.808;2023-05-09T01:02:24;74.78;;;34.08;;
25263;SDS011;13211;51.796;5.808;2023-05-09T01:04:51;77.68;;;34.65;;
25263;SDS011;13211;51.796;5.808;2023-05-09T01:07:32;78.65;;;35.45;;
25263;SDS011;13211;51.796;5.808;2023-05-09T01:10:02;84.65;;;36.05;;
25263;SDS011;13211;51.796;5.808;2023-05-09T01:22:56;88.70;;;37.50;;
25263;SDS011;13211;51.796;5.808;2023-05-09T01:25:42;88.30;;;37.72;;
25263;SDS011;13211;51.796;5.808;2023-05-09T01:30:48;91.30;;;38.97;;
25263;SDS011;13211;51.796;5.808;2023-05-09T01:33:18;83.07;;;36.40;;
25263;SDS011;13211;51.796;5.808;2023-05-09T01:35:48;83.65;;;37.92;;
25263;SDS011;13211;51.796;5.808;2023-05-09T01:38:19;80.72;;;35.83;;
25263;SDS011;13211;51.796;5.808;2023-05-09T01:40:49;85.97;;;37.55;;
25263;SDS011;13211;51.796;5.808;2023-05-09T01:45:48;77.78;;;35.45;;
25263;SDS011;13211;51.796;5.808;2023-05-09T01:48:17;83.65;;;37.60;;
25263;SDS011;13211;51.796;5.808;2023-05-09T01:50:47;81.83;;;36.67;;
25263;SDS011;13211;51.796;5.808;2023-05-09T01:53:15;86.18;;;37.50;;
25263;SDS011;13211;51.796;5.808;2023-05-09T01:55:45;96.20;;;39.65;;
25263;SDS011;13211;51.796;5.808;2023-05-09T01:58:13;104.05;;;39.92;;
25263;SDS011;13211;51.796;5.808;2023-05-09T02:00:42;94.60;;;39.38;;
25263;SDS011;13211;51.796;5.808;2023-05-09T02:03:10;92.43;;;39.15;;
25263;SDS011;13211;51.796;5.808;2023-05-09T02:05:38;92.43;;;39.13;;
25263;SDS011;13211;51.796;5.808;2023-05-09T02:08:07;88.13;;;38.55;;
25263;SDS011;13211;51.796;5.808;2023-05-09T02:10:35;102.93;;;42.58;;
25263;SDS011;13211;51.796;5.808;2023-05-09T02:13:06;96.20;;;40.45;;
25263;SDS011;13211;51.796;5.808;2023-05-09T02:15:33;94.05;;;39.97;;
25263;SDS011;13211;51.796;5.808;2023-05-09T02:18:01;104.78;;;42.00;;
25263;SDS011;13211;51.796;5.808;2023-05-09T02:20:29;97.90;;;41.20;;
25263;SDS011;13211;51.796;5.808;2023-05-09T02:22:56;92.72;;;38.90;;
25263;SDS011;13211;51.796;5.808;2023-05-09T02:25:27;91.38;;;38.40;;
25263;SDS011;13211;51.796;5.808;2023-05-09T02:27:55;88.90;;;37.78;;
25263;SDS011;13211;51.796;5.808;2023-05-09T02:30:25;99.93;;;40.30;;
25263;SDS011;13211;51.796;5.808;2023-05-09T02:32:58;103.45;;;40.70;;
25263;SDS011;13211;51.796;5.808;2023-05-09T02:35:27;87.72;;;38.03;;
25263;SDS011;13211;51.796;5.808;2023-05-09T02:37:56;92.65;;;40.53;;
25263;SDS011;13211;51.796;5.808;2023-05-09T02:40:24;103.65;;;41.63;;
25263;SDS011;13211;51.796;5.808;2023-05-09T02:42:52;105.43;;;41.60;;
25263;SDS011;13211;51.796;5.808;2023-05-09T02:45:20;94.28;;;39.58;;
25263;SDS011;13211;51.796;5.808;2023-05-09T02:47:48;97.28;;;42.50;;
25263;SDS011;13211;51.796;5.808;2023-05-09T02:50:17;92.90;;;39.55;;
25263;SDS011;13211;51.796;5.808;2023-05-09T02:52:45;89.10;;;38.55;;
25263;SDS011;13211;51.796;5.808;2023-05-09T02:55:17;92.72;;;39.60;;
25263;SDS011;13211;51.796;5.808;2023-05-09T02:57:45;92.50;;;37.58;;
25263;SDS011;13211;51.796;5.808;2023-05-09T03:00:27;85.88;;;37.60;;
25263;SDS011;13211;51.796;5.808;2023-05-09T03:02:56;90.28;;;38.70;;
25263;SDS011;13211;51.796;5.808;2023-05-09T03:05:24;82.82;;;36.63;;
25263;SDS011;13211;51.796;5.808;2023-05-09T03:07:52;87.63;;;38.10;;
25263;SDS011;13211;51.796;5.808;2023-05-09T03:10:19;94.22;;;40.42;;
25263;SDS011;13211;51.796;5.808;2023-05-09T03:12:48;98.88;;;41.92;;
25263;SDS011;13211;51.796;5.808;2023-05-09T03:15:17;101.53;;;41.28;;
25263;SDS011;13211;51.796;5.808;2023-05-09T03:17:46;94.57;;;39.85;;
25263;SDS011;13211;51.796;5.808;2023-05-09T03:20:14;96.63;;;40.38;;
25263;SDS011;13211;51.796;5.808;2023-05-09T03:22:42;97.03;;;39.17;;
25263;SDS011;13211;51.796;5.808;2023-05-09T03:25:10;88.35;;;39.20;;
25263;SDS011;13211;51.796;5.808;2023-05-09T03:27:38;98.00;;;40.40;;
25263;SDS011;13211;51.796;5.808;2023-05-09T03:30:10;85.35;;;37.53;;
25263;SDS011;13211;51.796;5.808;2023-05-09T03:32:40;88.88;;;37.33;;
25263;SDS011;13211;51.796;5.808;2023-05-09T03:35:08;88.47;;;38.55;;
25263;SDS011;13211;51.796;5.808;2023-05-09T03:37:36;78.25;;;35.22;;
25263;SDS011;13211;51.796;5.808;2023-05-09T03:40:06;75.45;;;34.20;;
25263;SDS011;13211;51.796;5.808;2023-05-09T03:42:42;80.43;;;34.78;;
25263;SDS011;13211;51.796;5.808;2023-05-09T03:45:10;73.40;;;34.33;;
25263;SDS011;13211;51.796;5.808;2023-05-09T03:47:39;72.87;;;33.80;;
25263;SDS011;13211;51.796;5.808;2023-05-09T03:50:08;71.18;;;33.42;;
25263;SDS011;13211;51.796;5.808;2023-05-09T03:52:36;75.78;;;34.42;;
25263;SDS011;13211;51.796;5.808;2023-05-09T03:55:05;68.72;;;31.88;;
25263;SDS011;13211;51.796;5.808;2023-05-09T03:57:35;73.97;;;33.53;;
25263;SDS011;13211;51.796;5.808;2023-05-09T04:00:03;69.72;;;31.67;;
25263;SDS011;13211;51.796;5.808;2023-05-09T04:02:39;74.40;;;32.38;;
25263;SDS011;13211;51.796;5.808;2023-05-09T04:05:12;73.97;;;33.40;;
25263;SDS011;13211;51.796;5.808;2023-05-09T04:07:42;75.55;;;33.67;;
25263;SDS011;13211;51.796;5.808;2023-05-09T04:10:10;78.47;;;33.67;;
25263;SDS011;13211;51.796;5.808;2023-05-09T04:12:38;72.05;;;33.40;;
25263;SDS011;13211;51.796;5.808;2023-05-09T04:15:09;73.78;;;32.83;;
25263;SDS011;13211;51.796;5.808;2023-05-09T04:17:38;71.53;;;32.75;;
25263;SDS011;13211;51.796;5.808;2023-05-09T04:20:06;82.55;;;34.33;;
25263;SDS011;13211;51.796;5.808;2023-05-09T04:22:35;82.93;;;35.03;;
25263;SDS011;13211;51.796;5.808;2023-05-09T04:25:03;70.80;;;33.10;;
25263;SDS011;13211;51.796;5.808;2023-05-09T04:27:31;71.03;;;33.45;;
25263;SDS011;13211;51.796;5.808;2023-05-09T04:29:58;70.60;;;31.92;;
25263;SDS011;13211;51.796;5.808;2023-05-09T04:32:26;69.60;;;32.42;;
25263;SDS011;13211;51.796;5.808;2023-05-09T04:34:54;68.55;;;32.13;;
25263;SDS011;13211;51.796;5.808;2023-05-09T04:37:28;68.15;;;32.22;;
25263;SDS011;13211;51.796;5.808;2023-05-09T04:39:59;67.85;;;33.15;;
25263;SDS011;13211;51.796;5.808;2023-05-09T04:42:35;64.60;;;31.60;;
25263;SDS011;13211;51.796;5.808;2023-05-09T04:45:04;62.03;;;31.30;;
25263;SDS011;13211;51.796;5.808;2023-05-09T04:47:33;64.88;;;31.35;;
25263;SDS011;13211;51.796;5.808;2023-05-09T04:50:02;67.75;;;32.35;;
25263;SDS011;13211;51.796;5.808;2023-05-09T04:52:32;68.97;;;30.92;;
25263;SDS011;13211;51.796;5.808;2023-05-09T04:55:00;62.17;;;31.65;;
25263;SDS011;13211;51.796;5.808;2023-05-09T04:57:33;71.43;;;32.78;;
25263;SDS011;13211;51.796;5.808;2023-05-09T05:00:03;64.70;;;30.77;;
25263;SDS011;13211;51.796;5.808;2023-05-09T05:02:34;65.72;;;31.95;;
25263;SDS011;13211;51.796;5.808;2023-05-09T05:05:03;80.32;;;32.95;;
25263;SDS011;13211;51.796;5.808;2023-05-09T05:07:40;65.07;;;32.08;;
25263;SDS011;13211;51.796;5.808;2023-05-09T05:10:11;64.10;;;31.05;;
25263;SDS011;13211;51.796;5.808;2023-05-09T05:12:45;65.30;;;31.90;;
25263;SDS011;13211;51.796;5.808;2023-05-09T05:15:14;65.43;;;32.20;;
25263;SDS011;13211;51.796;5.808;2023-05-09T05:17:47;67.97;;;32.40;;
25263;SDS011;13211;51.796;5.808;2023-05-09T05:20:19;70.40;;;32.67;;
25263;SDS011;13211;51.796;5.808;2023-05-09T05:22:48;63.13;;;32.45;;
25263;SDS011;13211;51.796;5.808;2023-05-09T05:25:17;60.95;;;31.88;;
25263;SDS011;13211;51.796;5.808;2023-05-09T05:27:48;65.38;;;30.48;;
25263;SDS011;13211;51.796;5.808;2023-05-09T05:30:15;62.95;;;30.95;;
25263;SDS011;13211;51.796;5.808;2023-05-09T05:32:44;63.03;;;30.10;;
25263;SDS011;13211;51.796;5.808;2023-05-09T05:35:19;61.88;;;30.77;;
25263;SDS011;13211;51.796;5.808;2023-05-09T05:37:51;64.72;;;31.58;;
25263;SDS011;13211;51.796;5.808;2023-05-09T05:40:20;60.00;;;29.92;;
25263;SDS011;13211;51.796;5.808;2023-05-09T05:42:49;55.10;;;28.70;;
25263;SDS011;13211;51.796;5.808;2023-05-09T05:45:17;55.53;;;28.23;;
25263;SDS011;13211;51.796;5.808;2023-05-09T05:47:49;50.25;;;27.35;;
25263;SDS011;13211;51.796;5.808;2023-05-09T05:50:18;48.47;;;26.25;;
25263;SDS011;13211;51.796;5.808;2023-05-09T05:55:19;51.25;;;25.88;;
25263;SDS011;13211;51.796;5.808;2023-05-09T05:57:48;49.10;;;28.45;;
25263;SDS011;13211;51.796;5.808;2023-05-09T06:00:19;53.05;;;27.30;;
25263;SDS011;13211;51.796;5.808;2023-05-09T06:03:03;50.08;;;27.42;;
25263;SDS011;13211;51.796;5.808;2023-05-09T06:05:42;50.80;;;26.55;;
25263;SDS011;13211;51.796;5.808;2023-05-09T06:08:14;49.83;;;26.63;;
25263;SDS011;13211;51.796;5.808;2023-05-09T06:10:48;49.22;;;26.05;;
25263;SDS011;13211;51.796;5.808;2023-05-09T06:13:18;47.10;;;26.33;;
25263;SDS011;13211;51.796;5.808;2023-05-09T06:16:00;50.22;;;26.95;;
25263;SDS011;13211;51.796;5.808;2023-05-09T06:18:52;50.65;;;26.25;;
25263;SDS011;13211;51.796;5.808;2023-05-09T06:21:25;48.65;;;26.05;;
25263;SDS011;13211;51.796;5.808;2023-05-09T06:24:03;45.22;;;25.23;;
25263;SDS011;13211;51.796;5.808;2023-05-09T06:27:02;46.90;;;25.77;;
25263;SDS011;13211;51.796;5.808;2023-05-09T06:29:35;43.72;;;25.02;;
25263;SDS011;13211;51.796;5.808;2023-05-09T06:32:06;48.33;;;26.50;;
25263;SDS011;13211;51.796;5.808;2023-05-09T06:34:35;45.72;;;25.70;;
25263;SDS011;13211;51.796;5.808;2023-05-09T06:37:17;45.30;;;25.02;;
25263;SDS011;13211;51.796;5.808;2023-05-09T06:39:48;43.13;;;26.08;;
25263;SDS011;13211;51.796;5.808;2023-05-09T06:42:19;43.47;;;24.92;;
25263;SDS011;13211;51.796;5.808;2023-05-09T06:44:53;44.97;;;26.10;;
25263;SDS011;13211;51.796;5.808;2023-05-09T06:47:21;37.35;;;23.90;;
25263;SDS011;13211;51.796;5.808;2023-05-09T06:49:51;40.58;;;25.30;;
25263;SDS011;13211;51.796;5.808;2023-05-09T06:52:23;41.97;;;23.55;;
25263;SDS011;13211;51.796;5.808;2023-05-09T06:54:57;42.60;;;25.33;;
25263;SDS011;13211;51.796;5.808;2023-05-09T07:00:24;43.90;;;25.65;;
25263;SDS011;13211;51.796;5.808;2023-05-09T07:02:52;45.03;;;25.88;;
25263;SDS011;13211;51.796;5.808;2023-05-09T07:05:25;43.00;;;25.13;;
25263;SDS011;13211;51.796;5.808;2023-05-09T07:07:53;41.72;;;26.02;;
25263;SDS011;13211;51.796;5.808;2023-05-09T07:10:21;40.38;;;25.52;;
25263;SDS011;13211;51.796;5.808;2023-05-09T07:12:49;40.10;;;24.35;;
25263;SDS011;13211;51.796;5.808;2023-05-09T07:15:17;39.67;;;23.90;;
25263;SDS011;13211;51.796;5.808;2023-05-09T07:18:02;41.38;;;24.27;;
25263;SDS011;13211;51.796;5.808;2023-05-09T07:20:30;39.53;;;22.65;;
25263;SDS011;13211;51.796;5.808;2023-05-09T07:22:58;36.95;;;22.73;;
25263;SDS011;13211;51.796;5.808;2023-05-09T07:25:26;39.33;;;23.50;;
25263;SDS011;13211;51.796;5.808;2023-05-09T07:27:54;39.33;;;22.80;;
25263;SDS011;13211;51.796;5.808;2023-05-09T07:30:22;39.88;;;23.70;;
25263;SDS011;13211;51.796;5.808;2023-05-09T07:32:52;36.35;;;22.85;;
25263;SDS011;13211;51.796;5.808;2023-05-09T07:35:19;38.67;;;22.42;;
25263;SDS011;13211;51.796;5.808;2023-05-09T07:37:48;36.83;;;22.85;;
25263;SDS011;13211;51.796;5.808;2023-05-09T07:40:17;38.58;;;22.38;;
25263;SDS011;13211;51.796;5.808;2023-05-09T07:42:47;39.80;;;22.42;;
25263;SDS011;13211;51.796;5.808;2023-05-09T07:45:17;37.67;;;21.88;;
25263;SDS011;13211;51.796;5.808;2023-05-09T07:47:49;36.80;;;21.52;;
25263;SDS011;13211;51.796;5.808;2023-05-09T07:50:17;38.15;;;21.30;;
25263;SDS011;13211;51.796;5.808;2023-05-09T07:52:45;36.70;;;22.50;;
25263;SDS011;13211;51.796;5.808;2023-05-09T07:55:15;34.47;;;22.45;;
25263;SDS011;13211;51.796;5.808;2023-05-09T07:57:44;34.45;;;21.65;;
25263;SDS011;13211;51.796;5.808;2023-05-09T08:00:13;36.15;;;20.67;;
25263;SDS011;13211;51.796;5.808;2023-05-09T08:02:43;36.08;;;22.08;;
25263;SDS011;13211;51.796;5.808;2023-05-09T08:05:11;33.63;;;22.23;;
25263;SDS011;13211;51.796;5.808;2023-05-09T08:07:40;36.80;;;21.40;;
25263;SDS011;13211;51.796;5.808;2023-05-09T08:10:11;28.55;;;20.15;;
25263;SDS011;13211;51.796;5.808;2023-05-09T08:12:39;33.78;;;21.27;;
25263;SDS011;13211;51.796;5.808;2023-05-09T08:15:07;34.05;;;21.65;;
25263;SDS011;13211;51.796;5.808;2023-05-09T08:17:35;33.60;;;22.65;;
25263;SDS011;13211;51.796;5.808;2023-05-09T08:20:03;34.50;;;19.70;;
25263;SDS011;13211;51.796;5.808;2023-05-09T08:22:31;34.03;;;20.52;;
25263;SDS011;13211;51.796;5.808;2023-05-09T08:24:59;32.58;;;20.45;;
25263;SDS011;13211;51.796;5.808;2023-05-09T08:27:26;36.78;;;20.63;;
25263;SDS011;13211;51.796;5.808;2023-05-09T08:29:55;32.85;;;20.75;;
25263;SDS011;13211;51.796;5.808;2023-05-09T08:32:23;32.40;;;21.42;;
25263;SDS011;13211;51.796;5.808;2023-05-09T08:34:51;32.67;;;20.70;;
25263;SDS011;13211;51.796;5.808;2023-05-09T08:37:18;35.72;;;21.92;;
25263;SDS011;13211;51.796;5.808;2023-05-09T08:39:50;33.47;;;20.67;;
25263;SDS011;13211;51.796;5.808;2023-05-09T08:42:18;29.80;;;20.05;;
25263;SDS011;13211;51.796;5.808;2023-05-09T08:44:51;37.80;;;19.60;;
25263;SDS011;13211;51.796;5.808;2023-05-09T08:47:19;29.40;;;18.95;;
25263;SDS011;13211;51.796;5.808;2023-05-09T08:49:48;28.80;;;17.48;;
25263;SDS011;13211;51.796;5.808;2023-05-09T08:52:17;24.90;;;16.00;;
25263;SDS011;13211;51.796;5.808;2023-05-09T08:54:48;24.83;;;13.52;;
25263;SDS011;13211;51.796;5.808;2023-05-09T08:57:17;21.70;;;14.25;;
25263;SDS011;13211;51.796;5.808;2023-05-09T08:59:45;22.25;;;13.35;;
25263;SDS011;13211;51.796;5.808;2023-05-09T09:02:14;25.00;;;13.43;;
25263;SDS011;13211;51.796;5.808;2023-05-09T09:04:44;21.45;;;12.85;;
25263;SDS011;13211;51.796;5.808;2023-05-09T09:07:15;17.27;;;12.57;;
25263;SDS011;13211;51.796;5.808;2023-05-09T09:09:45;19.20;;;12.25;;
25263;SDS011;13211;51.796;5.808;2023-05-09T09:12:15;20.23;;;11.70;;
25263;SDS011;13211;51.796;5.808;2023-05-09T09:14:51;22.70;;;12.18;;
25263;SDS011;13211;51.796;5.808;2023-05-09T09:17:24;22.45;;;12.50;;
25263;SDS011;13211;51.796;5.808;2023-05-09T09:19:57;19.73;;;11.23;;
25263;SDS011;13211;51.796;5.808;2023-05-09T09:22:31;17.27;;;11.63;;
25263;SDS011;13211;51.796;5.808;2023-05-09T09:25:00;20.02;;;11.63;;
25263;SDS011;13211;51.796;5.808;2023-05-09T09:27:30;17.85;;;10.63;;
25263;SDS011;13211;51.796;5.808;2023-05-09T09:30:05;21.27;;;10.05;;
25263;SDS011;13211;51.796;5.808;2023-05-09T09:32:34;15.52;;;9.35;;
25263;SDS011;13211;51.796;5.808;2023-05-09T09:35:05;15.60;;;9.05;;
25263;SDS011;13211;51.796;5.808;2023-05-09T09:37:39;15.75;;;9.40;;
25263;SDS011;13211;51.796;5.808;2023-05-09T09:40:09;12.90;;;8.30;;
25263;SDS011;13211;51.796;5.808;2023-05-09T09:42:47;13.77;;;7.85;;
25263;SDS011;13211;51.796;5.808;2023-05-09T09:45:20;16.35;;;7.78;;
25263;SDS011;13211;51.796;5.808;2023-05-09T09:47:48;10.57;;;7.28;;
25263;SDS011;13211;51.796;5.808;2023-05-09T09:50:16;7.95;;;6.53;;
25263;SDS011;13211;51.796;5.808;2023-05-09T09:52:48;12.10;;;6.97;;
25263;SDS011;13211;51.796;5.808;2023-05-09T09:55:17;12.68;;;7.43;;
25263;SDS011;13211;51.796;5.808;2023-05-09T09:57:45;12.95;;;6.80;;
25263;SDS011;13211;51.796;5.808;2023-05-09T10:00:15;13.03;;;7.00;;
25263;SDS011;13211;51.796;5.808;2023-05-09T10:02:48;19.08;;;7.68;;
25263;SDS011;13211;51.796;5.808;2023-05-09T10:05:19;10.75;;;6.78;;
25263;SDS011;13211;51.796;5.808;2023-05-09T10:08:00;17.30;;;7.53;;
25263;SDS011;13211;51.796;5.808;2023-05-09T10:10:29;14.35;;;8.13;;
25263;SDS011;13211;51.796;5.808;2023-05-09T10:12:58;14.50;;;7.90;;
25263;SDS011;13211;51.796;5.808;2023-05-09T10:15:27;15.23;;;8.98;;
25263;SDS011;13211;51.796;5.808;2023-05-09T10:18:07;14.00;;;9.45;;
25263;SDS011;13211;51.796;5.808;2023-05-09T10:20:37;15.88;;;8.85;;
25263;SDS011;13211;51.796;5.808;2023-05-09T10:23:06;17.83;;;10.40;;
25263;SDS011;13211;51.796;5.808;2023-05-09T10:28:02;18.67;;;10.93;;
25263;SDS011;13211;51.796;5.808;2023-05-09T10:30:40;16.15;;;10.30;;
25263;SDS011;13211;51.796;5.808;2023-05-09T10:33:18;14.73;;;10.15;;
25263;SDS011;13211;51.796;5.808;2023-05-09T10:35:48;16.83;;;7.85;;
25263;SDS011;13211;51.796;5.808;2023-05-09T10:38:20;17.58;;;7.95;;
25263;SDS011;13211;51.796;5.808;2023-05-09T10:40:54;12.13;;;8.45;;
25263;SDS011;13211;51.796;5.808;2023-05-09T10:43:22;13.50;;;8.45;;
25263;SDS011;13211;51.796;5.808;2023-05-09T10:45:50;14.43;;;9.15;;
25263;SDS011;13211;51.796;5.808;2023-05-09T10:48:19;14.13;;;9.45;;
25263;SDS011;13211;51.796;5.808;2023-05-09T10:50:48;14.13;;;10.25;;
25263;SDS011;13211;51.796;5.808;2023-05-09T10:53:18;13.68;;;10.10;;
25263;SDS011;13211;51.796;5.808;2023-05-09T10:58:23;15.40;;;9.50;;
25263;SDS011;13211;51.796;5.808;2023-05-09T11:00:53;13.18;;;9.05;;
25263;SDS011;13211;51.796;5.808;2023-05-09T11:03:23;14.20;;;9.38;;
25263;SDS011;13211;51.796;5.808;2023-05-09T11:05:56;19.13;;;10.10;;
25263;SDS011;13211;51.796;5.808;2023-05-09T11:08:25;13.45;;;8.32;;
25263;SDS011;13211;51.796;5.808;2023-05-09T11:10:54;10.57;;;7.65;;
25263;SDS011;13211;51.796;5.808;2023-05-09T11:13:23;11.80;;;7.63;;
25263;SDS011;13211;51.796;5.808;2023-05-09T11:18:25;13.65;;;7.50;;
25263;SDS011;13211;51.796;5.808;2023-05-09T11:20:54;12.85;;;7.50;;
25263;SDS011;13211;51.796;5.808;2023-05-09T11:23:25;12.52;;;7.00;;
25263;SDS011;13211;51.796;5.808;2023-05-09T11:25:58;9.85;;;4.90;;
25263;SDS011;13211;51.796;5.808;2023-05-09T11:28:31;6.78;;;4.00;;
25263;SDS011;13211;51.796;5.808;2023-05-09T11:31:09;8.02;;;3.67;;
25263;SDS011;13211;51.796;5.808;2023-05-09T11:33:38;5.63;;;3.35;;
25263;SDS011;13211;51.796;5.808;2023-05-09T11:36:20;5.97;;;3.72;;
25263;SDS011;13211;51.796;5.808;2023-05-09T11:39:02;8.52;;;3.88;;
25263;SDS011;13211;51.796;5.808;2023-05-09T11:41:31;10.50;;;4.85;;
25263;SDS011;13211;51.796;5.808;2023-05-09T11:44:21;12.05;;;6.45;;
25263;SDS011;13211;51.796;5.808;2023-05-09T11:46:48;7.05;;;4.82;;
25263;SDS011;13211;51.796;5.808;2023-05-09T11:49:24;9.35;;;4.53;;
25263;SDS011;13211;51.796;5.808;2023-05-09T11:52:04;8.18;;;4.70;;
25263;SDS011;13211;51.796;5.808;2023-05-09T11:54:32;6.03;;;3.90;;
25263;SDS011;13211;51.796;5.808;2023-05-09T11:56:59;8.63;;;3.92;;
25263;SDS011;13211;51.796;5.808;2023-05-09T11:59:28;6.15;;;4.15;;
25263;SDS011;13211;51.796;5.808;2023-05-09T12:02:03;10.18;;;4.38;;
25263;SDS011;13211;51.796;5.808;2023-05-09T12:04:33;6.30;;;4.75;;
25263;SDS011;13211;51.796;5.808;2023-05-09T12:07:02;6.43;;;4.60;;
25263;SDS011;13211;51.796;5.808;2023-05-09T12:09:30;9.57;;;5.25;;
25263;SDS011;13211;51.796;5.808;2023-05-09T12:11:59;7.53;;;5.82;;
25263;SDS011;13211;51.796;5.808;2023-05-09T12:16:54;9.15;;;6.47;;
25263;SDS011;13211;51.796;5.808;2023-05-09T12:19:23;7.95;;;5.65;;
25263;SDS011;13211;51.796;5.808;2023-05-09T12:21:55;9.38;;;5.65;;
25263;SDS011;13211;51.796;5.808;2023-05-09T12:24:28;6.63;;;5.40;;
25263;SDS011;13211;51.796;5.808;2023-05-09T12:26:57;6.95;;;5.53;;
25263;SDS011;13211;51.796;5.808;2023-05-09T12:29:25;9.73;;;6.50;;
25263;SDS011;13211;51.796;5.808;2023-05-09T12:31:53;7.65;;;5.68;;
25263;SDS011;13211;51.796;5.808;2023-05-09T12:34:21;10.57;;;5.78;;
25263;SDS011;13211;51.796;5.808;2023-05-09T12:36:50;11.25;;;5.93;;
25263;SDS011;13211;51.796;5.808;2023-05-09T12:39:19;9.80;;;6.07;;
25263;SDS011;13211;51.796;5.808;2023-05-09T12:41:49;9.60;;;6.10;;
25263;SDS011;13211;51.796;5.808;2023-05-09T12:44:27;7.03;;;5.30;;
25263;SDS011;13211;51.796;5.808;2023-05-09T12:47:15;15.10;;;5.70;;
25263;SDS011;13211;51.796;5.808;2023-05-09T12:49:48;12.52;;;5.97;;
25263;SDS011;13211;51.796;5.808;2023-05-09T12:52:17;9.93;;;6.13;;
25263;SDS011;13211;51.796;5.808;2023-05-09T12:54:50;8.82;;;6.25;;
25263;SDS011;13211;51.796;5.808;2023-05-09T12:57:22;7.75;;;6.47;;
25263;SDS011;13211;51.796;5.808;2023-05-09T12:59:56;11.52;;;6.53;;
25263;SDS011;13211;51.796;5.808;2023-05-09T13:02:24;9.63;;;6.65;;
25263;SDS011;13211;51.796;5.808;2023-05-09T13:07:40;9.65;;;6.75;;
25263;SDS011;13211;51.796;5.808;2023-05-09T13:10:09;8.38;;;6.53;;
25263;SDS011;13211;51.796;5.808;2023-05-09T13:12:38;9.25;;;7.22;;
25263;SDS011;13211;51.796;5.808;2023-05-09T13:15:10;15.80;;;6.35;;
25263;SDS011;13211;51.796;5.808;2023-05-09T13:17:39;7.93;;;5.82;;
25263;SDS011;13211;51.796;5.808;2023-05-09T13:20:07;8.00;;;5.72;;
25263;SDS011;13211;51.796;5.808;2023-05-09T13:22:36;7.47;;;4.60;;
25263;SDS011;13211;51.796;5.808;2023-05-09T13:25:04;7.15;;;4.18;;
25263;SDS011;13211;51.796;5.808;2023-05-09T13:27:38;8.68;;;4.43;;
25263;SDS011;13211;51.796;5.808;2023-05-09T13:30:06;7.72;;;4.85;;
25263;SDS011;13211;51.796;5.808;2023-05-09T13:32:34;10.27;;;5.55;;
25263;SDS011;13211;51.796;5.808;2023-05-09T13:35:03;10.82;;;5.15;;
25263;SDS011;13211;51.796;5.808;2023-05-09T13:37:33;7.93;;;5.38;;
25263;SDS011;13211;51.796;5.808;2023-05-09T13:40:01;10.27;;;5.80;;
25263;SDS011;13211;51.796;5.808;2023-05-09T13:42:30;11.35;;;5.50;;
25263;SDS011;13211;51.796;5.808;2023-05-09T13:44:58;6.78;;;5.40;;
25263;SDS011;13211;51.796;5.808;2023-05-09T13:47:25;13.15;;;6.38;;
25263;SDS011;13211;51.796;5.808;2023-05-09T13:49:53;8.52;;;5.22;;
25263;SDS011;13211;51.796;5.808;2023-05-09T13:52:21;7.78;;;4.60;;
25263;SDS011;13211;51.796;5.808;2023-05-09T13:54:50;6.70;;;4.93;;
25263;SDS011;13211;51.796;5.808;2023-05-09T13:57:19;6.63;;;3.95;;
25263;SDS011;13211;51.796;5.808;2023-05-09T13:59:55;6.97;;;3.78;;
25263;SDS011;13211;51.796;5.808;2023-05-09T14:02:24;5.53;;;3.67;;
25263;SDS011;13211;51.796;5.808;2023-05-09T14:04:52;5.45;;;3.78;;
25263;SDS011;13211;51.796;5.808;2023-05-09T14:07:21;14.63;;;3.78;;
25263;SDS011;13211;51.796;5.808;2023-05-09T14:09:48;6.35;;;3.88;;
25263;SDS011;13211;51.796;5.808;2023-05-09T14:12:27;5.00;;;3.80;;
25263;SDS011;13211;51.796;5.808;2023-05-09T14:14:55;6.95;;;4.07;;
25263;SDS011;13211;51.796;5.808;2023-05-09T14:17:22;9.75;;;3.92;;
25263;SDS011;13211;51.796;5.808;2023-05-09T14:19:50;6.47;;;4.35;;
25263;SDS011;13211;51.796;5.808;2023-05-09T14:22:19;5.78;;;4.40;;
25263;SDS011;13211;51.796;5.808;2023-05-09T14:24:47;8.50;;;4.68;;
25263;SDS011;13211;51.796;5.808;2023-05-09T14:27:16;6.90;;;5.07;;
25263;SDS011;13211;51.796;5.808;2023-05-09T14:29:44;7.25;;;5.13;;
25263;SDS011;13211;51.796;5.808;2023-05-09T14:32:13;10.10;;;4.95;;
25263;SDS011;13211;51.796;5.808;2023-05-09T14:34:43;10.32;;;4.72;;
25263;SDS011;13211;51.796;5.808;2023-05-09T14:37:12;8.73;;;4.78;;
25263;SDS011;13211;51.796;5.808;2023-05-09T14:39:41;6.53;;;4.82;;
25263;SDS011;13211;51.796;5.808;2023-05-09T14:42:08;8.95;;;5.40;;
25263;SDS011;13211;51.796;5.808;2023-05-09T14:44:38;7.75;;;5.53;;
25263;SDS011;13211;51.796;5.808;2023-05-09T14:47:07;6.38;;;5.32;;
25263;SDS011;13211;51.796;5.808;2023-05-09T14:49:35;9.63;;;6.10;;
25263;SDS011;13211;51.796;5.808;2023-05-09T14:52:05;11.23;;;5.72;;
25263;SDS011;13211;51.796;5.808;2023-05-09T14:54:33;7.20;;;5.35;;
25263;SDS011;13211;51.796;5.808;2023-05-09T14:57:01;8.80;;;5.25;;
25263;SDS011;13211;51.796;5.808;2023-05-09T14:59:30;8.68;;;6.03;;
25263;SDS011;13211;51.796;5.808;2023-05-09T15:02:03;7.75;;;5.60;;
25263;SDS011;13211;51.796;5.808;2023-05-09T15:04:30;7.28;;;6.00;;
25263;SDS011;13211;51.796;5.808;2023-05-09T15:06:59;10.90;;;5.75;;
25263;SDS011;13211;51.796;5.808;2023-05-09T15:09:31;7.78;;;5.38;;
25263;SDS011;13211;51.796;5.808;2023-05-09T15:11:58;10.07;;;5.95;;
25263;SDS011;13211;51.796;5.808;2023-05-09T15:14:26;9.82;;;6.30;;
25263;SDS011;13211;51.796;5.808;2023-05-09T15:16:58;8.63;;;6.35;;
25263;SDS011;13211;51.796;5.808;2023-05-09T15:19:29;9.23;;;6.50;;
25263;SDS011;13211;51.796;5.808;2023-05-09T15:21:59;11.17;;;5.93;;
25263;SDS011;13211;51.796;5.808;2023-05-09T15:24:31;7.15;;;5.97;;